sensor_id;sensor_type;location;lat;lon;timestamp;P1;durP1;ratioP1;P2;durP2;ratioP2
55015;SDS011;40919;43.236;21.590;2023-03-26T00:01:00;11.65;;;7.00;;
55015;SDS011;40919;43.236;21.590;2023-03-26T00:03:30;12.52;;;7.63;;
55015;SDS011;40919;43.236;21.590;2023-03-26T00:06:04;9.95;;;6.07;;
55015;SDS011;40919;43.236;21.590;2023-03-26T00:08:37;8.95;;;5.70;;
55015;SDS011;40919;43.236;21.590;2023-03-26T00:11:04;8.95;;;5.43;;
55015;SDS011;40919;43.236;21.590;2023-03-26T00:13:41;15.30;;;10.18;;
55015;SDS011;40919;43.236;21.590;2023-03-26T00:16:20;9.07;;;5.45;;
55015;SDS011;40919;43.236;21.590;2023-03-26T00:18:47;10.00;;;5.28;;
55015;SDS011;40919;43.236;21.590;2023-03-26T00:21:17;11.80;;;6.28;;
55015;SDS011;40919;43.236;21.590;2023-03-26T00:23:45;8.77;;;5.80;;
55015;SDS011;40919;43.236;21.590;2023-03-26T00:26:13;7.97;;;4.80;;
55015;SDS011;40919;43.236;21.590;2023-03-26T00:28:41;8.57;;;5.13;;
55015;SDS011;40919;43.236;21.590;2023-03-26T00:31:09;11.25;;;6.38;;
55015;SDS011;40919;43.236;21.590;2023-03-26T00:33:37;12.23;;;5.85;;
55015;SDS011;40919;43.236;21.590;2023-03-26T00:36:06;11.27;;;4.88;;
55015;SDS011;40919;43.236;21.590;2023-03-26T00:38:38;7.43;;;4.32;;
55015;SDS011;40919;43.236;21.590;2023-03-26T00:41:05;8.15;;;4.00;;
55015;SDS011;40919;43.236;21.590;2023-03-26T00:43:41;8.25;;;3.92;;
55015;SDS011;40919;43.236;21.590;2023-03-26T00:46:09;7.55;;;4.57;;
55015;SDS011;40919;43.236;21.590;2023-03-26T00:48:35;6.80;;;3.90;;
55015;SDS011;40919;43.236;21.590;2023-03-26T00:51:03;5.65;;;3.47;;
55015;SDS011;40919;43.236;21.590;2023-03-26T00:53:30;8.15;;;4.00;;
55015;SDS011;40919;43.236;21.590;2023-03-26T00:55:56;7.97;;;4.03;;
55015;SDS011;40919;43.236;21.590;2023-03-26T00:58:24;9.18;;;5.00;;
55015;SDS011;40919;43.236;21.590;2023-03-26T01:01:01;9.93;;;5.20;;
55015;SDS011;40919;43.236;21.590;2023-03-26T01:03:30;11.52;;;6.20;;
55015;SDS011;40919;43.236;21.590;2023-03-26T01:05:58;12.93;;;5.28;;
55015;SDS011;40919;43.236;21.590;2023-03-26T01:14:10;13.07;;;5.75;;
55015;SDS011;40919;43.236;21.590;2023-03-26T01:16:44;12.15;;;4.88;;
55015;SDS011;40919;43.236;21.590;2023-03-26T01:22:07;8.38;;;4.30;;
55015;SDS011;40919;43.236;21.590;2023-03-26T01:24:35;8.50;;;5.45;;
55015;SDS011;40919;43.236;21.590;2023-03-26T01:29:43;8.93;;;4.72;;
55015;SDS011;40919;43.236;21.590;2023-03-26T01:41:25;8.70;;;4.95;;
55015;SDS011;40919;43.236;21.590;2023-03-26T01:43:26;10.02;;;5.18;;
55015;SDS011;40919;43.236;21.590;2023-03-26T01:45:56;8.98;;;5.20;;
55015;SDS011;40919;43.236;21.590;2023-03-26T01:48:38;6.55;;;4.10;;
55015;SDS011;40919;43.236;21.590;2023-03-26T01:51:07;11.60;;;9.40;;
55015;SDS011;40919;43.236;21.590;2023-03-26T01:53:34;8.02;;;5.75;;
55015;SDS011;40919;43.236;21.590;2023-03-26T02:07:14;7.97;;;3.45;;
55015;SDS011;40919;43.236;21.590;2023-03-26T02:09:55;4.88;;;2.90;;
55015;SDS011;40919;43.236;21.590;2023-03-26T02:12:24;6.50;;;3.33;;
55015;SDS011;40919;43.236;21.590;2023-03-26T02:14:50;5.72;;;3.15;;
55015;SDS011;40919;43.236;21.590;2023-03-26T02:17:16;7.47;;;3.67;;
55015;SDS011;40919;43.236;21.590;2023-03-26T02:19:43;4.70;;;2.80;;
55015;SDS011;40919;43.236;21.590;2023-03-26T02:22:09;6.88;;;3.35;;
55015;SDS011;40919;43.236;21.590;2023-03-26T02:24:40;5.28;;;3.00;;
55015;SDS011;40919;43.236;21.590;2023-03-26T02:27:06;4.82;;;2.67;;
55015;SDS011;40919;43.236;21.590;2023-03-26T02:29:35;6.53;;;3.30;;
55015;SDS011;40919;43.236;21.590;2023-03-26T02:32:06;6.35;;;2.67;;
55015;SDS011;40919;43.236;21.590;2023-03-26T02:34:33;6.75;;;3.30;;
55015;SDS011;40919;43.236;21.590;2023-03-26T02:36:58;5.88;;;3.47;;
55015;SDS011;40919;43.236;21.590;2023-03-26T02:39:24;7.82;;;3.47;;
55015;SDS011;40919;43.236;21.590;2023-03-26T02:41:50;7.30;;;3.72;;
55015;SDS011;40919;43.236;21.590;2023-03-26T02:44:16;7.70;;;3.45;;
55015;SDS011;40919;43.236;21.590;2023-03-26T02:46:42;6.22;;;3.67;;
55015;SDS011;40919;43.236;21.590;2023-03-26T02:49:08;6.90;;;3.85;;
55015;SDS011;40919;43.236;21.590;2023-03-26T02:51:33;8.45;;;3.35;;
55015;SDS011;40919;43.236;21.590;2023-03-26T02:54:00;4.75;;;2.60;;
55015;SDS011;40919;43.236;21.590;2023-03-26T02:56:26;5.18;;;2.83;;
55015;SDS011;40919;43.236;21.590;2023-03-26T02:58:52;7.32;;;3.72;;
55015;SDS011;40919;43.236;21.590;2023-03-26T03:01:18;6.75;;;3.83;;
55015;SDS011;40919;43.236;21.590;2023-03-26T03:03:44;5.03;;;3.35;;
55015;SDS011;40919;43.236;21.590;2023-03-26T03:06:14;9.93;;;3.97;;
55015;SDS011;40919;43.236;21.590;2023-03-26T03:08:44;5.75;;;3.58;;
55015;SDS011;40919;43.236;21.590;2023-03-26T03:11:11;7.93;;;4.72;;
55015;SDS011;40919;43.236;21.590;2023-03-26T03:13:42;5.93;;;3.90;;
55015;SDS011;40919;43.236;21.590;2023-03-26T03:16:08;7.18;;;4.03;;
55015;SDS011;40919;43.236;21.590;2023-03-26T03:18:34;7.05;;;3.90;;
55015;SDS011;40919;43.236;21.590;2023-03-26T03:21:02;8.32;;;4.38;;
55015;SDS011;40919;43.236;21.590;2023-03-26T03:23:28;11.75;;;4.88;;
55015;SDS011;40919;43.236;21.590;2023-03-26T03:25:54;9.57;;;5.80;;
55015;SDS011;40919;43.236;21.590;2023-03-26T03:28:21;8.68;;;5.25;;
55015;SDS011;40919;43.236;21.590;2023-03-26T03:30:48;5.65;;;3.25;;
55015;SDS011;40919;43.236;21.590;2023-03-26T03:33:21;4.47;;;2.53;;
55015;SDS011;40919;43.236;21.590;2023-03-26T03:35:47;7.60;;;3.95;;
55015;SDS011;40919;43.236;21.590;2023-03-26T03:38:14;16.15;;;8.60;;
55015;SDS011;40919;43.236;21.590;2023-03-26T03:40:43;11.90;;;7.38;;
55015;SDS011;40919;43.236;21.590;2023-03-26T03:43:09;14.52;;;8.20;;
55015;SDS011;40919;43.236;21.590;2023-03-26T03:45:35;16.15;;;8.32;;
55015;SDS011;40919;43.236;21.590;2023-03-26T03:48:01;15.90;;;8.32;;
55015;SDS011;40919;43.236;21.590;2023-03-26T03:50:27;13.18;;;8.60;;
55015;SDS011;40919;43.236;21.590;2023-03-26T03:52:52;13.00;;;8.25;;
55015;SDS011;40919;43.236;21.590;2023-03-26T03:55:20;12.38;;;7.82;;
55015;SDS011;40919;43.236;21.590;2023-03-26T03:57:48;23.83;;;10.30;;
55015;SDS011;40919;43.236;21.590;2023-03-26T04:00:14;24.05;;;10.40;;
55015;SDS011;40919;43.236;21.590;2023-03-26T04:02:40;23.98;;;10.88;;
55015;SDS011;40919;43.236;21.590;2023-03-26T04:05:06;15.55;;;7.63;;
55015;SDS011;40919;43.236;21.590;2023-03-26T04:07:33;11.90;;;5.72;;
55015;SDS011;40919;43.236;21.590;2023-03-26T04:09:59;12.82;;;5.78;;
55015;SDS011;40919;43.236;21.590;2023-03-26T04:12:27;11.30;;;6.60;;
55015;SDS011;40919;43.236;21.590;2023-03-26T04:14:54;10.23;;;5.70;;
55015;SDS011;40919;43.236;21.590;2023-03-26T04:17:20;8.75;;;4.45;;
55015;SDS011;40919;43.236;21.590;2023-03-26T04:19:47;9.85;;;5.65;;
55015;SDS011;40919;43.236;21.590;2023-03-26T04:22:19;10.77;;;5.68;;
55015;SDS011;40919;43.236;21.590;2023-03-26T04:24:45;5.75;;;3.58;;
55015;SDS011;40919;43.236;21.590;2023-03-26T04:27:16;6.78;;;3.63;;
55015;SDS011;40919;43.236;21.590;2023-03-26T04:29:48;7.97;;;3.72;;
55015;SDS011;40919;43.236;21.590;2023-03-26T04:32:21;5.63;;;3.70;;
55015;SDS011;40919;43.236;21.590;2023-03-26T04:34:54;10.90;;;6.15;;
55015;SDS011;40919;43.236;21.590;2023-03-26T04:37:28;11.77;;;7.93;;
55015;SDS011;40919;43.236;21.590;2023-03-26T04:39:58;12.65;;;8.30;;
55015;SDS011;40919;43.236;21.590;2023-03-26T04:42:32;12.93;;;8.57;;
55015;SDS011;40919;43.236;21.590;2023-03-26T04:44:58;16.23;;;8.27;;
55015;SDS011;40919;43.236;21.590;2023-03-26T04:47:27;13.90;;;8.27;;
55015;SDS011;40919;43.236;21.590;2023-03-26T04:49:53;10.98;;;8.25;;
55015;SDS011;40919;43.236;21.590;2023-03-26T04:52:19;14.90;;;8.35;;
55015;SDS011;40919;43.236;21.590;2023-03-26T04:54:45;14.60;;;9.88;;
55015;SDS011;40919;43.236;21.590;2023-03-26T04:57:22;15.23;;;9.07;;
55015;SDS011;40919;43.236;21.590;2023-03-26T04:59:51;15.45;;;9.30;;
55015;SDS011;40919;43.236;21.590;2023-03-26T05:02:17;13.60;;;8.82;;
55015;SDS011;40919;43.236;21.590;2023-03-26T05:04:44;14.80;;;8.48;;
55015;SDS011;40919;43.236;21.590;2023-03-26T05:07:10;15.70;;;9.27;;
55015;SDS011;40919;43.236;21.590;2023-03-26T05:09:41;9.87;;;7.33;;
55015;SDS011;40919;43.236;21.590;2023-03-26T05:12:07;13.38;;;7.72;;
55015;SDS011;40919;43.236;21.590;2023-03-26T05:14:33;15.50;;;9.68;;
55015;SDS011;40919;43.236;21.590;2023-03-26T05:17:00;16.38;;;9.73;;
55015;SDS011;40919;43.236;21.590;2023-03-26T05:19:30;17.05;;;9.73;;
55015;SDS011;40919;43.236;21.590;2023-03-26T05:21:56;10.07;;;6.78;;
55015;SDS011;40919;43.236;21.590;2023-03-26T05:24:22;12.05;;;7.00;;
55015;SDS011;40919;43.236;21.590;2023-03-26T05:26:49;13.27;;;7.30;;
55015;SDS011;40919;43.236;21.590;2023-03-26T05:29:15;16.50;;;7.07;;
55015;SDS011;40919;43.236;21.590;2023-03-26T05:31:42;14.02;;;9.05;;
55015;SDS011;40919;43.236;21.590;2023-03-26T05:34:08;15.15;;;8.13;;
55015;SDS011;40919;43.236;21.590;2023-03-26T05:36:34;11.00;;;7.80;;
55015;SDS011;40919;43.236;21.590;2023-03-26T05:39:01;13.32;;;8.30;;
55015;SDS011;40919;43.236;21.590;2023-03-26T05:41:27;14.50;;;8.25;;
55015;SDS011;40919;43.236;21.590;2023-03-26T05:43:53;12.52;;;7.55;;
55015;SDS011;40919;43.236;21.590;2023-03-26T05:46:19;13.95;;;8.48;;
55015;SDS011;40919;43.236;21.590;2023-03-26T05:48:46;12.52;;;7.07;;
55015;SDS011;40919;43.236;21.590;2023-03-26T05:51:12;11.18;;;8.02;;
55015;SDS011;40919;43.236;21.590;2023-03-26T05:53:39;11.52;;;7.40;;
55015;SDS011;40919;43.236;21.590;2023-03-26T05:56:06;11.60;;;8.10;;
55015;SDS011;40919;43.236;21.590;2023-03-26T05:58:32;13.10;;;7.70;;
55015;SDS011;40919;43.236;21.590;2023-03-26T06:01:00;11.70;;;7.70;;
55015;SDS011;40919;43.236;21.590;2023-03-26T06:06:08;15.52;;;8.68;;
55015;SDS011;40919;43.236;21.590;2023-03-26T06:08:42;14.93;;;9.38;;
55015;SDS011;40919;43.236;21.590;2023-03-26T06:11:13;10.80;;;7.43;;
55015;SDS011;40919;43.236;21.590;2023-03-26T06:13:40;10.73;;;7.50;;
55015;SDS011;40919;43.236;21.590;2023-03-26T06:16:07;12.52;;;8.30;;
55015;SDS011;40919;43.236;21.590;2023-03-26T06:18:33;15.20;;;9.40;;
55015;SDS011;40919;43.236;21.590;2023-03-26T06:20:59;20.60;;;12.90;;
55015;SDS011;40919;43.236;21.590;2023-03-26T06:23:25;22.50;;;15.57;;
55015;SDS011;40919;43.236;21.590;2023-03-26T06:25:51;21.15;;;14.15;;
55015;SDS011;40919;43.236;21.590;2023-03-26T06:28:17;22.75;;;15.43;;
55015;SDS011;40919;43.236;21.590;2023-03-26T06:30:43;21.40;;;14.35;;
55015;SDS011;40919;43.236;21.590;2023-03-26T06:33:08;14.30;;;10.48;;
55015;SDS011;40919;43.236;21.590;2023-03-26T06:35:35;16.50;;;9.48;;
55015;SDS011;40919;43.236;21.590;2023-03-26T06:38:01;13.38;;;9.05;;
55015;SDS011;40919;43.236;21.590;2023-03-26T06:40:27;12.32;;;8.63;;
55015;SDS011;40919;43.236;21.590;2023-03-26T06:42:53;16.90;;;9.07;;
55015;SDS011;40919;43.236;21.590;2023-03-26T06:45:20;14.48;;;9.50;;
55015;SDS011;40919;43.236;21.590;2023-03-26T06:47:46;8.77;;;6.40;;
55015;SDS011;40919;43.236;21.590;2023-03-26T06:50:11;11.02;;;6.72;;
55015;SDS011;40919;43.236;21.590;2023-03-26T06:52:37;12.75;;;7.43;;
55015;SDS011;40919;43.236;21.590;2023-03-26T06:55:03;7.47;;;4.93;;
55015;SDS011;40919;43.236;21.590;2023-03-26T06:57:30;7.07;;;3.70;;
55015;SDS011;40919;43.236;21.590;2023-03-26T06:59:56;5.95;;;3.75;;
55015;SDS011;40919;43.236;21.590;2023-03-26T07:02:22;6.55;;;3.70;;
55015;SDS011;40919;43.236;21.590;2023-03-26T07:04:48;6.00;;;3.63;;
55015;SDS011;40919;43.236;21.590;2023-03-26T07:07:13;8.05;;;4.82;;
55015;SDS011;40919;43.236;21.590;2023-03-26T07:09:39;7.18;;;4.82;;
55015;SDS011;40919;43.236;21.590;2023-03-26T07:12:05;5.22;;;3.88;;
55015;SDS011;40919;43.236;21.590;2023-03-26T07:14:31;8.02;;;6.43;;
55015;SDS011;40919;43.236;21.590;2023-03-26T07:16:57;7.40;;;5.35;;
55015;SDS011;40919;43.236;21.590;2023-03-26T07:19:23;10.80;;;7.28;;
55015;SDS011;40919;43.236;21.590;2023-03-26T07:21:50;12.27;;;5.97;;
55015;SDS011;40919;43.236;21.590;2023-03-26T07:24:16;7.72;;;4.97;;
55015;SDS011;40919;43.236;21.590;2023-03-26T07:29:20;8.60;;;5.88;;
55015;SDS011;40919;43.236;21.590;2023-03-26T07:31:54;7.88;;;4.40;;
55015;SDS011;40919;43.236;21.590;2023-03-26T07:44:59;8.23;;;3.33;;
55015;SDS011;40919;43.236;21.590;2023-03-26T07:47:33;6.25;;;2.47;;
55015;SDS011;40919;43.236;21.590;2023-03-26T07:49:59;6.85;;;4.05;;
55015;SDS011;40919;43.236;21.590;2023-03-26T07:52:25;7.90;;;4.25;;
55015;SDS011;40919;43.236;21.590;2023-03-26T07:54:51;6.93;;;4.00;;
55015;SDS011;40919;43.236;21.590;2023-03-26T08:13:46;4.22;;;2.08;;
55015;SDS011;40919;43.236;21.590;2023-03-26T08:16:30;3.78;;;1.98;;
55015;SDS011;40919;43.236;21.590;2023-03-26T08:22:25;3.20;;;1.67;;
55015;SDS011;40919;43.236;21.590;2023-03-26T08:25:16;4.18;;;2.30;;
55015;SDS011;40919;43.236;21.590;2023-03-26T08:30:57;4.22;;;1.88;;
55015;SDS011;40919;43.236;21.590;2023-03-26T08:33:26;6.78;;;2.35;;
55015;SDS011;40919;43.236;21.590;2023-03-26T08:35:53;4.65;;;2.63;;
55015;SDS011;40919;43.236;21.590;2023-03-26T08:38:20;5.07;;;2.25;;
55015;SDS011;40919;43.236;21.590;2023-03-26T08:46:46;6.35;;;3.20;;
55015;SDS011;40919;43.236;21.590;2023-03-26T09:21:24;6.47;;;2.03;;
55015;SDS011;40919;43.236;21.590;2023-03-26T09:24:16;9.25;;;1.90;;
55015;SDS011;40919;43.236;21.590;2023-03-26T09:38:17;6.70;;;2.00;;
55015;SDS011;40919;43.236;21.590;2023-03-26T09:49:47;3.85;;;2.28;;
55015;SDS011;40919;43.236;21.590;2023-03-26T10:22:46;5.13;;;1.38;;
55015;SDS011;40919;43.236;21.590;2023-03-26T10:36:28;3.90;;;1.80;;
55015;SDS011;40919;43.236;21.590;2023-03-26T10:52:54;8.43;;;3.75;;
55015;SDS011;40919;43.236;21.590;2023-03-26T10:55:41;7.35;;;3.13;;
55015;SDS011;40919;43.236;21.590;2023-03-26T11:01:10;7.13;;;1.67;;
55015;SDS011;40919;43.236;21.590;2023-03-26T11:03:47;4.93;;;2.05;;
55015;SDS011;40919;43.236;21.590;2023-03-26T11:11:27;5.93;;;2.10;;
55015;SDS011;40919;43.236;21.590;2023-03-26T11:14:10;3.50;;;1.73;;
55015;SDS011;40919;43.236;21.590;2023-03-26T11:22:30;8.68;;;2.78;;
55015;SDS011;40919;43.236;21.590;2023-03-26T11:33:10;5.43;;;2.25;;
55015;SDS011;40919;43.236;21.590;2023-03-26T11:35:42;4.82;;;2.60;;
55015;SDS011;40919;43.236;21.590;2023-03-26T11:38:15;6.72;;;2.30;;
55015;SDS011;40919;43.236;21.590;2023-03-26T11:40:57;3.95;;;2.03;;
55015;SDS011;40919;43.236;21.590;2023-03-26T11:43:33;4.00;;;2.30;;
55015;SDS011;40919;43.236;21.590;2023-03-26T11:46:04;5.10;;;2.03;;
55015;SDS011;40919;43.236;21.590;2023-03-26T11:48:39;4.07;;;1.90;;
55015;SDS011;40919;43.236;21.590;2023-03-26T11:51:10;4.00;;;2.22;;
55015;SDS011;40919;43.236;21.590;2023-03-26T11:53:50;10.52;;;2.88;;
55015;SDS011;40919;43.236;21.590;2023-03-26T11:58:49;3.22;;;1.75;;
55015;SDS011;40919;43.236;21.590;2023-03-26T12:01:19;4.47;;;2.25;;
55015;SDS011;40919;43.236;21.590;2023-03-26T12:07:21;5.60;;;3.47;;
55015;SDS011;40919;43.236;21.590;2023-03-26T12:12:25;5.88;;;3.40;;
55015;SDS011;40919;43.236;21.590;2023-03-26T12:14:56;5.25;;;2.90;;
55015;SDS011;40919;43.236;21.590;2023-03-26T12:17:30;9.82;;;6.93;;
55015;SDS011;40919;43.236;21.590;2023-03-26T12:19:58;12.93;;;9.50;;
55015;SDS011;40919;43.236;21.590;2023-03-26T12:22:26;7.25;;;5.50;;
55015;SDS011;40919;43.236;21.590;2023-03-26T12:28:14;6.78;;;4.13;;
55015;SDS011;40919;43.236;21.590;2023-03-26T12:33:29;5.32;;;2.95;;
55015;SDS011;40919;43.236;21.590;2023-03-26T12:35:59;4.78;;;2.35;;
55015;SDS011;40919;43.236;21.590;2023-03-26T12:38:53;6.50;;;2.58;;
55015;SDS011;40919;43.236;21.590;2023-03-26T12:41:20;4.63;;;2.47;;
55015;SDS011;40919;43.236;21.590;2023-03-26T12:49:47;8.05;;;6.47;;
55015;SDS011;40919;43.236;21.590;2023-03-26T13:00:44;10.23;;;5.53;;
55015;SDS011;40919;43.236;21.590;2023-03-26T13:03:28;9.70;;;6.38;;
55015;SDS011;40919;43.236;21.590;2023-03-26T13:09:21;11.35;;;10.20;;
55015;SDS011;40919;43.236;21.590;2023-03-26T13:20:50;5.38;;;2.97;;
55015;SDS011;40919;43.236;21.590;2023-03-26T13:28:41;5.95;;;3.38;;
55015;SDS011;40919;43.236;21.590;2023-03-26T13:40:10;5.55;;;2.70;;
55015;SDS011;40919;43.236;21.590;2023-03-26T13:48:26;6.40;;;4.03;;
55015;SDS011;40919;43.236;21.590;2023-03-26T13:51:17;7.78;;;3.92;;
55015;SDS011;40919;43.236;21.590;2023-03-26T13:56:46;4.63;;;3.08;;
55015;SDS011;40919;43.236;21.590;2023-03-26T14:02:46;6.40;;;4.32;;
55015;SDS011;40919;43.236;21.590;2023-03-26T14:07:48;6.20;;;4.03;;
55015;SDS011;40919;43.236;21.590;2023-03-26T14:10:25;4.93;;;2.92;;
55015;SDS011;40919;43.236;21.590;2023-03-26T14:12:58;4.40;;;2.22;;
55015;SDS011;40919;43.236;21.590;2023-03-26T14:18:23;8.45;;;4.88;;
55015;SDS011;40919;43.236;21.590;2023-03-26T14:29:29;15.60;;;8.75;;
55015;SDS011;40919;43.236;21.590;2023-03-26T14:32:14;52.67;;;26.33;;
55015;SDS011;40919;43.236;21.590;2023-03-26T14:43:39;8.40;;;4.00;;
55015;SDS011;40919;43.236;21.590;2023-03-26T14:46:35;12.52;;;6.57;;
55015;SDS011;40919;43.236;21.590;2023-03-26T14:52:15;13.68;;;8.13;;
55015;SDS011;40919;43.236;21.590;2023-03-26T14:55:02;9.88;;;5.55;;
55015;SDS011;40919;43.236;21.590;2023-03-26T14:57:49;9.00;;;6.03;;
55015;SDS011;40919;43.236;21.590;2023-03-26T15:06:25;11.25;;;7.47;;
55015;SDS011;40919;43.236;21.590;2023-03-26T15:26:08;9.63;;;5.22;;
55015;SDS011;40919;43.236;21.590;2023-03-26T15:34:26;8.80;;;4.78;;
55015;SDS011;40919;43.236;21.590;2023-03-26T15:39:45;8.27;;;5.65;;
55015;SDS011;40919;43.236;21.590;2023-03-26T16:04:47;32.22;;;21.08;;
55015;SDS011;40919;43.236;21.590;2023-03-26T16:10:24;33.38;;;20.85;;
55015;SDS011;40919;43.236;21.590;2023-03-26T16:18:41;57.55;;;31.90;;
55015;SDS011;40919;43.236;21.590;2023-03-26T16:33:51;62.85;;;40.35;;
55015;SDS011;40919;43.236;21.590;2023-03-26T16:41:28;75.45;;;41.70;;
55015;SDS011;40919;43.236;21.590;2023-03-26T16:48:58;41.42;;;25.95;;
55015;SDS011;40919;43.236;21.590;2023-03-26T16:54:15;47.38;;;30.50;;
55015;SDS011;40919;43.236;21.590;2023-03-26T16:59:37;23.40;;;16.67;;
55015;SDS011;40919;43.236;21.590;2023-03-26T17:02:24;18.93;;;14.97;;
55015;SDS011;40919;43.236;21.590;2023-03-26T17:04:53;29.25;;;17.80;;
55015;SDS011;40919;43.236;21.590;2023-03-26T17:07:28;37.13;;;23.83;;
55015;SDS011;40919;43.236;21.590;2023-03-26T17:12:35;39.83;;;25.23;;
55015;SDS011;40919;43.236;21.590;2023-03-26T17:18:38;40.90;;;28.90;;
55015;SDS011;40919;43.236;21.590;2023-03-26T17:21:44;39.88;;;28.13;;
55015;SDS011;40919;43.236;21.590;2023-03-26T17:26:54;79.03;;;47.60;;
55015;SDS011;40919;43.236;21.590;2023-03-26T17:32:11;75.10;;;48.75;;
55015;SDS011;40919;43.236;21.590;2023-03-26T17:47:50;77.22;;;62.20;;
55015;SDS011;40919;43.236;21.590;2023-03-26T17:50:24;71.57;;;54.30;;
55015;SDS011;40919;43.236;21.590;2023-03-26T17:53:02;63.60;;;47.88;;
55015;SDS011;40919;43.236;21.590;2023-03-26T17:55:37;55.73;;;42.10;;
55015;SDS011;40919;43.236;21.590;2023-03-26T17:58:05;60.88;;;43.22;;
55015;SDS011;40919;43.236;21.590;2023-03-26T18:00:45;65.38;;;43.28;;
55015;SDS011;40919;43.236;21.590;2023-03-26T18:03:20;54.70;;;39.92;;
55015;SDS011;40919;43.236;21.590;2023-03-26T18:05:56;43.67;;;32.50;;
55015;SDS011;40919;43.236;21.590;2023-03-26T18:08:33;47.10;;;32.13;;
55015;SDS011;40919;43.236;21.590;2023-03-26T18:14:11;41.53;;;27.77;;
55015;SDS011;40919;43.236;21.590;2023-03-26T18:16:42;38.40;;;24.13;;
55015;SDS011;40919;43.236;21.590;2023-03-26T18:19:14;25.38;;;18.02;;
55015;SDS011;40919;43.236;21.590;2023-03-26T18:21:46;30.00;;;19.27;;
55015;SDS011;40919;43.236;21.590;2023-03-26T18:24:58;31.35;;;19.98;;
55015;SDS011;40919;43.236;21.590;2023-03-26T18:27:08;39.65;;;25.70;;
55015;SDS011;40919;43.236;21.590;2023-03-26T18:29:37;31.60;;;19.42;;
55015;SDS011;40919;43.236;21.590;2023-03-26T18:34:36;40.85;;;28.02;;
55015;SDS011;40919;43.236;21.590;2023-03-26T18:39:40;93.25;;;75.72;;
55015;SDS011;40919;43.236;21.590;2023-03-26T18:42:34;81.43;;;60.13;;
55015;SDS011;40919;43.236;21.590;2023-03-26T18:45:02;50.17;;;36.92;;
55015;SDS011;40919;43.236;21.590;2023-03-26T18:47:51;64.05;;;41.35;;
55015;SDS011;40919;43.236;21.590;2023-03-26T18:50:30;188.38;;;114.35;;
55015;SDS011;40919;43.236;21.590;2023-03-26T18:53:01;175.07;;;110.07;;
55015;SDS011;40919;43.236;21.590;2023-03-26T18:55:29;134.90;;;89.85;;
55015;SDS011;40919;43.236;21.590;2023-03-26T18:57:58;104.60;;;70.82;;
55015;SDS011;40919;43.236;21.590;2023-03-26T19:00:24;68.60;;;47.03;;
55015;SDS011;40919;43.236;21.590;2023-03-26T19:03:01;94.72;;;62.65;;
55015;SDS011;40919;43.236;21.590;2023-03-26T19:05:28;108.22;;;69.32;;
55015;SDS011;40919;43.236;21.590;2023-03-26T19:07:56;120.55;;;83.07;;
55015;SDS011;40919;43.236;21.590;2023-03-26T19:10:25;106.75;;;80.13;;
55015;SDS011;40919;43.236;21.590;2023-03-26T19:12:55;109.60;;;79.10;;
55015;SDS011;40919;43.236;21.590;2023-03-26T19:15:22;91.88;;;69.50;;
55015;SDS011;40919;43.236;21.590;2023-03-26T19:17:52;142.43;;;96.07;;
55015;SDS011;40919;43.236;21.590;2023-03-26T19:20:24;98.55;;;69.35;;
55015;SDS011;40919;43.236;21.590;2023-03-26T19:22:52;186.00;;;132.17;;
55015;SDS011;40919;43.236;21.590;2023-03-26T19:25:34;129.20;;;94.72;;
55015;SDS011;40919;43.236;21.590;2023-03-26T19:28:05;112.40;;;82.05;;
55015;SDS011;40919;43.236;21.590;2023-03-26T19:30:38;94.97;;;65.88;;
55015;SDS011;40919;43.236;21.590;2023-03-26T19:33:16;98.10;;;67.72;;
55015;SDS011;40919;43.236;21.590;2023-03-26T19:35:44;96.90;;;65.07;;
55015;SDS011;40919;43.236;21.590;2023-03-26T19:38:27;97.55;;;65.75;;
55015;SDS011;40919;43.236;21.590;2023-03-26T19:40:54;103.05;;;70.35;;
55015;SDS011;40919;43.236;21.590;2023-03-26T19:43:22;120.80;;;82.07;;
55015;SDS011;40919;43.236;21.590;2023-03-26T19:45:51;115.47;;;75.93;;
55015;SDS011;40919;43.236;21.590;2023-03-26T19:48:18;163.82;;;121.60;;
55015;SDS011;40919;43.236;21.590;2023-03-26T19:51:13;131.05;;;94.00;;
55015;SDS011;40919;43.236;21.590;2023-03-26T19:53:43;125.68;;;85.70;;
55015;SDS011;40919;43.236;21.590;2023-03-26T19:56:14;129.05;;;86.25;;
55015;SDS011;40919;43.236;21.590;2023-03-26T19:58:43;113.78;;;76.85;;
55015;SDS011;40919;43.236;21.590;2023-03-26T20:03:46;101.28;;;64.95;;
55015;SDS011;40919;43.236;21.590;2023-03-26T20:06:14;98.75;;;64.85;;
55015;SDS011;40919;43.236;21.590;2023-03-26T20:08:41;104.32;;;68.45;;
55015;SDS011;40919;43.236;21.590;2023-03-26T20:11:40;113.00;;;75.70;;
55015;SDS011;40919;43.236;21.590;2023-03-26T20:14:20;118.25;;;78.60;;
55015;SDS011;40919;43.236;21.590;2023-03-26T20:16:49;117.72;;;75.47;;
55015;SDS011;40919;43.236;21.590;2023-03-26T20:19:16;107.75;;;72.13;;
55015;SDS011;40919;43.236;21.590;2023-03-26T20:21:42;121.50;;;77.65;;
55015;SDS011;40919;43.236;21.590;2023-03-26T20:24:13;113.93;;;76.72;;
55015;SDS011;40919;43.236;21.590;2023-03-26T20:26:41;100.07;;;68.75;;
55015;SDS011;40919;43.236;21.590;2023-03-26T20:29:07;112.55;;;73.85;;
55015;SDS011;40919;43.236;21.590;2023-03-26T20:31:32;100.65;;;68.55;;
55015;SDS011;40919;43.236;21.590;2023-03-26T20:33:58;104.65;;;69.38;;
55015;SDS011;40919;43.236;21.590;2023-03-26T20:36:24;125.60;;;82.45;;
55015;SDS011;40919;43.236;21.590;2023-03-26T20:38:52;183.00;;;102.43;;
55015;SDS011;40919;43.236;21.590;2023-03-26T20:41:21;172.15;;;113.97;;
55015;SDS011;40919;43.236;21.590;2023-03-26T20:43:48;158.10;;;105.90;;
55015;SDS011;40919;43.236;21.590;2023-03-26T20:46:18;156.00;;;102.28;;
55015;SDS011;40919;43.236;21.590;2023-03-26T20:48:46;139.95;;;93.28;;
55015;SDS011;40919;43.236;21.590;2023-03-26T20:51:12;114.63;;;77.32;;
55015;SDS011;40919;43.236;21.590;2023-03-26T20:53:42;108.47;;;73.78;;
55015;SDS011;40919;43.236;21.590;2023-03-26T20:56:10;98.20;;;69.45;;
55015;SDS011;40919;43.236;21.590;2023-03-26T20:58:38;88.25;;;59.97;;
55015;SDS011;40919;43.236;21.590;2023-03-26T21:01:04;91.70;;;61.83;;
55015;SDS011;40919;43.236;21.590;2023-03-26T21:03:30;78.15;;;55.35;;
55015;SDS011;40919;43.236;21.590;2023-03-26T21:06:00;78.35;;;55.03;;
55015;SDS011;40919;43.236;21.590;2023-03-26T21:08:27;67.15;;;47.00;;
55015;SDS011;40919;43.236;21.590;2023-03-26T21:10:59;66.95;;;48.55;;
55015;SDS011;40919;43.236;21.590;2023-03-26T21:14:14;68.13;;;48.53;;
55015;SDS011;40919;43.236;21.590;2023-03-26T21:16:12;70.38;;;49.33;;
55015;SDS011;40919;43.236;21.590;2023-03-26T21:18:38;89.50;;;61.05;;
55015;SDS011;40919;43.236;21.590;2023-03-26T21:21:24;90.65;;;60.90;;
55015;SDS011;40919;43.236;21.590;2023-03-26T21:24:04;88.05;;;61.45;;
55015;SDS011;40919;43.236;21.590;2023-03-26T21:26:35;88.95;;;59.88;;
55015;SDS011;40919;43.236;21.590;2023-03-26T21:29:02;91.13;;;61.63;;
55015;SDS011;40919;43.236;21.590;2023-03-26T21:31:28;96.75;;;66.00;;
55015;SDS011;40919;43.236;21.590;2023-03-26T21:34:00;71.40;;;50.25;;
55015;SDS011;40919;43.236;21.590;2023-03-26T21:36:27;75.85;;;51.05;;
55015;SDS011;40919;43.236;21.590;2023-03-26T21:38:53;90.43;;;55.42;;
55015;SDS011;40919;43.236;21.590;2023-03-26T21:41:24;95.45;;;66.55;;
55015;SDS011;40919;43.236;21.590;2023-03-26T21:43:53;95.97;;;67.45;;
55015;SDS011;40919;43.236;21.590;2023-03-26T21:46:19;89.70;;;59.08;;